Time;durP1;ratioP1;P1;durP2;ratioP2;P2;SDS_P1;SDS_P2;PMS_P1;PMS_P2;Temp;Humidity;BMP_temperature;BMP_pressure;BME280_temperature;BME280_humidity;BME280_pressure;Samples;Min_cycle;Max_cycle;Signal;HPM_P1;HPM_P2
2023/01/03 00:01:06;;;;;;;25.87;15.57;;;;;;;;;;5009424;28;20230;-71
2023/01/03 00:03:31;;;;;;;23.50;14.57;;;;;;;;;;5010181;28;20216;-73
2023/01/03 00:05:57;;;;;;;29.63;16.83;;;;;;;;;;5004700;28;20276;-72
2023/01/03 00:08:22;;;;;;;22.98;15.30;;;;;;;;;;4989627;28;20656;-72
2023/01/03 00:10:47;;;;;;;30.52;17.67;;;;;;;;;;4999608;28;20216;-72
2023/01/03 00:13:13;;;;;;;22.13;15.47;;;;;;;;;;5009748;28;20200;-72
2023/01/03 00:15:38;;;;;;;23.97;16.33;;;;;;;;;;5009308;28;20228;-72
2023/01/03 00:18:03;;;;;;;23.42;15.43;;;;;;;;;;5009737;28;20431;-72
2023/01/03 00:20:29;;;;;;;28.43;16.67;;;;;;;;;;5010429;28;20216;-72
2023/01/03 00:22:54;;;;;;;22.90;15.10;;;;;;;;;;5007813;28;20286;-72
2023/01/03 00:25:19;;;;;;;22.25;15.30;;;;;;;;;;5009617;28;20299;-72
2023/01/03 00:27:45;;;;;;;25.23;16.73;;;;;;;;;;5010005;28;20239;-72
2023/01/03 00:30:10;;;;;;;30.50;17.83;;;;;;;;;;5008672;28;20205;-72
2023/01/03 00:32:35;;;;;;;27.13;17.80;;;;;;;;;;5009869;28;20236;-72
2023/01/03 00:35:01;;;;;;;34.13;19.45;;;;;;;;;;5009033;28;20228;-71
2023/01/03 00:37:26;;;;;;;30.85;17.80;;;;;;;;;;5009142;28;20256;-72
2023/01/03 00:39:51;;;;;;;25.10;16.70;;;;;;;;;;5009674;28;20220;-72
2023/01/03 00:42:17;;;;;;;22.83;15.87;;;;;;;;;;5009751;28;20228;-72
2023/01/03 00:44:42;;;;;;;25.10;16.67;;;;;;;;;;5009090;28;20236;-72
2023/01/03 00:47:07;;;;;;;21.37;15.97;;;;;;;;;;5009304;28;20296;-71
2023/01/03 00:49:34;;;;;;;26.93;17.60;;;;;;;;;;5008795;28;20734;-72
2023/01/03 00:51:59;;;;;;;31.95;18.25;;;;;;;;;;5009398;28;20618;-73
2023/01/03 00:54:24;;;;;;;29.10;18.50;;;;;;;;;;5008995;28;20292;-72
2023/01/03 00:56:50;;;;;;;29.30;18.50;;;;;;;;;;5008631;28;20228;-73
2023/01/03 00:59:15;;;;;;;23.52;15.90;;;;;;;;;;5008999;28;20217;-72
2023/01/03 01:01:41;;;;;;;26.30;16.40;;;;;;;;;;5009567;28;20212;-72
2023/01/03 01:04:08;;;;;;;28.67;18.27;;;;;;;;;;5008072;28;20208;-71
2023/01/03 01:06:35;;;;;;;28.25;17.35;;;;;;;;;;4997432;28;20591;-72
2023/01/03 01:09:01;;;;;;;22.15;16.20;;;;;;;;;;4989199;28;20215;-66
2023/01/03 01:11:26;;;;;;;28.20;17.70;;;;;;;;;;4988444;28;20217;-72
2023/01/03 01:13:51;;;;;;;23.17;15.63;;;;;;;;;;4989832;28;20250;-72
2023/01/03 01:16:19;;;;;;;23.50;15.93;;;;;;;;;;4989109;28;20879;-72
2023/01/03 01:18:44;;;;;;;25.20;16.40;;;;;;;;;;4988995;28;20213;-72
2023/01/03 01:21:11;;;;;;;26.77;16.00;;;;;;;;;;4987732;28;20575;-71
2023/01/03 01:23:37;;;;;;;23.63;16.48;;;;;;;;;;4989619;28;20283;-72
2023/01/03 01:26:02;;;;;;;22.53;14.50;;;;;;;;;;4988332;28;20209;-72
2023/01/03 01:28:28;;;;;;;22.67;15.50;;;;;;;;;;4989662;28;20213;-72
2023/01/03 01:30:53;;;;;;;28.08;15.95;;;;;;;;;;4989499;28;20222;-72
2023/01/03 01:33:18;;;;;;;25.13;16.40;;;;;;;;;;4988425;28;20219;-72
2023/01/03 01:35:44;;;;;;;27.57;17.37;;;;;;;;;;5006114;28;20225;-72
2023/01/03 01:38:09;;;;;;;24.87;16.30;;;;;;;;;;5008224;28;20714;-72
2023/01/03 01:40:34;;;;;;;26.67;15.80;;;;;;;;;;5008047;28;20287;-72
2023/01/03 01:45:46;;;;;;;20.37;15.30;;;;;;;;;;4993063;28;20698;-72
2023/01/03 01:48:11;;;;;;;24.87;16.63;;;;;;;;;;4990853;28;20212;-72
2023/01/03 01:50:37;;;;;;;27.33;17.47;;;;;;;;;;5008811;28;20234;-72
2023/01/03 01:53:14;;;;;;;25.70;17.07;;;;;;;;;;4990137;28;20239;-72
2023/01/03 01:55:42;;;;;;;40.92;27.45;;;;;;;;;;4991083;28;20695;-72
2023/01/03 01:58:07;;;;;;;40.10;23.33;;;;;;;;;;4990728;28;20318;-71
2023/01/03 02:00:33;;;;;;;49.13;32.80;;;;;;;;;;5008206;28;20683;-72
2023/01/03 02:02:58;;;;;;;31.93;23.27;;;;;;;;;;4991004;28;20213;-72
2023/01/03 02:05:23;;;;;;;32.77;23.23;;;;;;;;;;5008352;28;20258;-72
2023/01/03 02:07:49;;;;;;;30.33;22.23;;;;;;;;;;5007841;28;20228;-72
2023/01/03 02:10:14;;;;;;;29.23;22.10;;;;;;;;;;4990580;28;20496;-72
2023/01/03 02:15:43;;;;;;;31.00;20.50;;;;;;;;;;4992417;28;20271;-72
2023/01/03 02:18:23;;;;;;;28.50;20.47;;;;;;;;;;4990641;28;20219;-71
2023/01/03 02:20:55;;;;;;;28.97;19.93;;;;;;;;;;5008793;28;20212;-72
2023/01/03 02:23:25;;;;;;;32.20;21.90;;;;;;;;;;4994521;28;22440;-71
2023/01/03 02:26:03;;;;;;;29.98;20.27;;;;;;;;;;4994478;28;20213;-72
2023/01/03 02:28:35;;;;;;;33.10;23.08;;;;;;;;;;5011033;28;20592;-72
2023/01/03 02:31:04;;;;;;;30.83;22.33;;;;;;;;;;5011981;28;20216;-72
2023/01/03 02:33:31;;;;;;;30.30;22.10;;;;;;;;;;5011732;28;20585;-72
2023/01/03 02:35:58;;;;;;;30.17;21.70;;;;;;;;;;5008761;28;20235;-72
2023/01/03 02:38:25;;;;;;;31.75;23.13;;;;;;;;;;5011331;28;20578;-72
2023/01/03 02:40:54;;;;;;;32.85;23.13;;;;;;;;;;5010586;28;20205;-72
2023/01/03 02:43:25;;;;;;;35.03;24.20;;;;;;;;;;5010831;28;20231;-72
2023/01/03 02:45:57;;;;;;;33.75;23.08;;;;;;;;;;5011874;28;20573;-72
2023/01/03 02:48:27;;;;;;;33.78;23.20;;;;;;;;;;5011364;28;20611;-72
2023/01/03 02:50:52;;;;;;;28.70;20.30;;;;;;;;;;5011242;28;20208;-72
2023/01/03 02:53:20;;;;;;;30.08;20.92;;;;;;;;;;5009885;28;20224;-72
2023/01/03 02:55:45;;;;;;;28.95;20.80;;;;;;;;;;5010338;28;20711;-72
2023/01/03 02:58:14;;;;;;;31.20;22.08;;;;;;;;;;5009374;28;20223;-72
2023/01/03 03:00:40;;;;;;;29.40;20.13;;;;;;;;;;5011424;28;20223;-72
2023/01/03 03:03:08;;;;;;;30.47;21.20;;;;;;;;;;5009254;28;20311;-72
2023/01/03 03:05:36;;;;;;;31.25;21.92;;;;;;;;;;5011450;28;20223;-72
2023/01/03 03:08:01;;;;;;;32.63;22.20;;;;;;;;;;5009901;28;20563;-71
2023/01/03 03:13:15;;;;;;;22.85;18.52;;;;;;;;;;5010020;28;20215;-68
2023/01/03 03:15:44;;;;;;;28.92;21.42;;;;;;;;;;4997451;28;20217;-71
2023/01/03 03:18:11;;;;;;;27.33;19.93;;;;;;;;;;4973486;28;20252;-71
2023/01/03 03:26:07;;;;;;;28.17;20.77;;;;;;;;;;4981325;28;20216;-71
2023/01/03 03:28:33;;;;;;;24.85;19.73;;;;;;;;;;4981021;28;20206;-71
2023/01/03 03:31:14;;;;;;;27.65;20.75;;;;;;;;;;4980679;28;20715;-71
2023/01/03 03:33:44;;;;;;;28.13;21.35;;;;;;;;;;4986264;28;20212;-72
2023/01/03 03:36:12;;;;;;;26.90;20.97;;;;;;;;;;4976921;28;20241;-71
2023/01/03 03:38:39;;;;;;;30.42;22.00;;;;;;;;;;4973131;28;20213;-71
2023/01/03 03:46:52;;;;;;;28.43;20.70;;;;;;;;;;4981057;28;20602;-71
2023/01/03 03:52:02;;;;;;;32.23;22.90;;;;;;;;;;4979988;28;20216;-71
2023/01/03 03:54:27;;;;;;;28.50;21.42;;;;;;;;;;4979842;28;20209;-72
2023/01/03 03:56:54;;;;;;;30.43;21.53;;;;;;;;;;4981465;28;20277;-71
2023/01/03 03:59:19;;;;;;;31.35;21.98;;;;;;;;;;4974984;28;20365;-71
2023/01/03 04:01:44;;;;;;;31.50;22.50;;;;;;;;;;4974153;28;20544;-71
2023/01/03 04:04:12;;;;;;;34.35;22.42;;;;;;;;;;4974793;28;20852;-71
2023/01/03 04:06:46;;;;;;;33.92;24.33;;;;;;;;;;4976822;28;20535;-71
2023/01/03 04:09:12;;;;;;;29.60;22.33;;;;;;;;;;4981510;28;20212;-71
2023/01/03 04:11:37;;;;;;;38.20;24.83;;;;;;;;;;4981042;28;20209;-71
2023/01/03 04:14:02;;;;;;;33.23;24.43;;;;;;;;;;4980548;28;20221;-71
2023/01/03 04:16:27;;;;;;;33.13;24.67;;;;;;;;;;4981164;28;20223;-71
2023/01/03 04:18:53;;;;;;;41.72;29.08;;;;;;;;;;4991438;28;20221;-71
2023/01/03 04:21:18;;;;;;;41.73;29.43;;;;;;;;;;5008722;28;20220;-71
2023/01/03 04:23:43;;;;;;;36.77;26.20;;;;;;;;;;5009898;28;20213;-71
2023/01/03 04:26:09;;;;;;;38.83;27.80;;;;;;;;;;5009901;28;20208;-71
2023/01/03 04:28:34;;;;;;;39.43;28.27;;;;;;;;;;5009021;28;20240;-71
2023/01/03 04:30:59;;;;;;;31.33;24.07;;;;;;;;;;5010056;28;20217;-71
2023/01/03 04:33:24;;;;;;;32.10;24.07;;;;;;;;;;5009370;28;20524;-71
2023/01/03 04:35:50;;;;;;;36.45;25.27;;;;;;;;;;5009026;28;20232;-71
2023/01/03 04:38:15;;;;;;;32.30;24.13;;;;;;;;;;5014224;28;20657;-71
2023/01/03 04:40:40;;;;;;;30.83;23.27;;;;;;;;;;5025631;28;20212;-71
2023/01/03 04:45:50;;;;;;;33.17;23.83;;;;;;;;;;5008926;28;20215;-71
2023/01/03 04:48:15;;;;;;;32.60;21.70;;;;;;;;;;5009168;28;20216;-71
2023/01/03 04:50:40;;;;;;;27.70;20.03;;;;;;;;;;5007747;28;20295;-71
2023/01/03 04:53:06;;;;;;;30.50;20.48;;;;;;;;;;5009004;28;20282;-70
2023/01/03 04:55:31;;;;;;;28.45;19.75;;;;;;;;;;5009546;28;20234;-71
2023/01/03 04:57:56;;;;;;;30.00;20.90;;;;;;;;;;5008934;28;20236;-71
2023/01/03 05:00:22;;;;;;;28.38;19.67;;;;;;;;;;5009002;28;20243;-70
2023/01/03 05:02:47;;;;;;;26.63;18.90;;;;;;;;;;5008726;28;20554;-71
2023/01/03 05:05:12;;;;;;;28.60;20.23;;;;;;;;;;5009238;28;20254;-70
2023/01/03 05:07:37;;;;;;;26.70;20.77;;;;;;;;;;5009578;28;20209;-71
2023/01/03 05:10:03;;;;;;;29.07;21.30;;;;;;;;;;5005831;28;20211;-70
2023/01/03 05:12:28;;;;;;;28.23;21.47;;;;;;;;;;4981232;28;20741;-71
2023/01/03 05:14:54;;;;;;;25.13;17.67;;;;;;;;;;4975690;28;20251;-71
2023/01/03 05:17:19;;;;;;;25.50;18.90;;;;;;;;;;4971613;28;20275;-71
2023/01/03 05:27:56;;;;;;;23.20;16.03;;;;;;;;;;4980113;28;20251;-71
2023/01/03 05:30:22;;;;;;;26.90;17.97;;;;;;;;;;4980164;28;20609;-71
2023/01/03 05:32:47;;;;;;;26.20;17.97;;;;;;;;;;4998291;28;20607;-71
2023/01/03 05:35:12;;;;;;;27.13;18.17;;;;;;;;;;4999415;28;20224;-71
2023/01/03 05:37:38;;;;;;;25.67;18.93;;;;;;;;;;4987969;28;20225;-71
2023/01/03 05:40:03;;;;;;;24.73;17.60;;;;;;;;;;4972655;28;20252;-71
2023/01/03 05:42:28;;;;;;;23.73;16.10;;;;;;;;;;4972812;28;20263;-71
2023/01/03 05:44:54;;;;;;;24.48;18.65;;;;;;;;;;4977538;28;20303;-71
2023/01/03 05:47:19;;;;;;;26.73;17.43;;;;;;;;;;4979492;28;20216;-71
2023/01/03 05:49:44;;;;;;;22.53;17.30;;;;;;;;;;4980447;28;20734;-71
2023/01/03 05:52:10;;;;;;;25.40;17.67;;;;;;;;;;4978827;28;20212;-70
2023/01/03 05:54:35;;;;;;;31.63;19.60;;;;;;;;;;4979969;28;20244;-71
2023/01/03 05:57:00;;;;;;;33.27;19.33;;;;;;;;;;4982032;28;20217;-68
2023/01/03 05:59:26;;;;;;;25.93;19.33;;;;;;;;;;4980538;28;20729;-71
2023/01/03 06:01:51;;;;;;;30.38;20.83;;;;;;;;;;4978680;28;20209;-71
2023/01/03 06:04:16;;;;;;;26.30;18.50;;;;;;;;;;4993863;28;20224;-71
2023/01/03 06:06:42;;;;;;;34.10;21.23;;;;;;;;;;4986723;28;20213;-71
2023/01/03 06:09:07;;;;;;;30.70;20.43;;;;;;;;;;4983100;28;20224;-70
2023/01/03 06:11:32;;;;;;;29.50;20.67;;;;;;;;;;4988054;28;20209;-71
2023/01/03 06:13:57;;;;;;;37.07;22.10;;;;;;;;;;5006024;28;20204;-71
2023/01/03 06:19:07;;;;;;;29.13;19.30;;;;;;;;;;5011722;28;20218;-70
2023/01/03 06:21:32;;;;;;;31.20;21.37;;;;;;;;;;5011947;28;20296;-71
2023/01/03 06:23:57;;;;;;;30.17;21.10;;;;;;;;;;5012145;28;20266;-71
2023/01/03 06:26:23;;;;;;;32.30;20.70;;;;;;;;;;5011979;28;20216;-70
2023/01/03 06:28:48;;;;;;;32.83;22.30;;;;;;;;;;5011420;28;20207;-70
2023/01/03 06:31:14;;;;;;;28.03;19.10;;;;;;;;;;5011612;28;20216;-70
2023/01/03 06:33:39;;;;;;;28.87;19.73;;;;;;;;;;5012208;28;20711;-70
2023/01/03 06:36:05;;;;;;;28.77;19.77;;;;;;;;;;5010648;28;20319;-70
2023/01/03 06:38:30;;;;;;;28.40;19.27;;;;;;;;;;5019252;28;20212;-70
2023/01/03 06:40:57;;;;;;;25.17;18.10;;;;;;;;;;5025345;28;20311;-70
2023/01/03 06:43:22;;;;;;;25.40;17.17;;;;;;;;;;5011114;28;20303;-70
2023/01/03 06:54:00;;;;;;;24.57;17.67;;;;;;;;;;4981593;28;21258;-70
2023/01/03 06:56:25;;;;;;;24.63;17.30;;;;;;;;;;4982133;28;20236;-70
2023/01/03 06:58:51;;;;;;;23.80;16.17;;;;;;;;;;4979138;28;20213;-70
2023/01/03 07:01:16;;;;;;;22.63;15.40;;;;;;;;;;4975663;28;20582;-70
2023/01/03 07:03:41;;;;;;;22.10;15.73;;;;;;;;;;4974793;28;20235;-70
2023/01/03 07:06:06;;;;;;;20.70;15.85;;;;;;;;;;4978688;28;20228;-69
2023/01/03 07:08:32;;;;;;;23.67;15.57;;;;;;;;;;4981603;28;20802;-70
2023/01/03 07:10:57;;;;;;;25.20;15.98;;;;;;;;;;4982504;28;20193;-70
2023/01/03 07:16:06;;;;;;;24.03;16.23;;;;;;;;;;4981904;28;20239;-69
2023/01/03 07:18:32;;;;;;;26.40;16.20;;;;;;;;;;4981373;28;20205;-70
2023/01/03 07:20:58;;;;;;;20.03;13.87;;;;;;;;;;4980760;28;20239;-70
2023/01/03 07:23:23;;;;;;;28.70;14.80;;;;;;;;;;4974195;28;20616;-69
2023/01/03 07:25:48;;;;;;;17.90;13.73;;;;;;;;;;4975645;28;20720;-69
2023/01/03 07:28:14;;;;;;;19.07;13.33;;;;;;;;;;4976696;28;20254;-69
2023/01/03 07:30:39;;;;;;;18.70;13.50;;;;;;;;;;4981258;28;20229;-69
2023/01/03 07:33:05;;;;;;;20.70;14.43;;;;;;;;;;4982154;28;20682;-70
2023/01/03 07:35:32;;;;;;;20.73;14.17;;;;;;;;;;4981856;28;20256;-69
2023/01/03 07:37:57;;;;;;;18.83;14.20;;;;;;;;;;4981672;28;20224;-70
2023/01/03 07:40:22;;;;;;;25.13;15.60;;;;;;;;;;4981482;28;20209;-70
2023/01/03 07:45:32;;;;;;;19.70;12.53;;;;;;;;;;4973926;28;20212;-70
2023/01/03 07:47:57;;;;;;;20.67;16.07;;;;;;;;;;4974037;28;20425;-67
2023/01/03 07:50:22;;;;;;;22.90;14.30;;;;;;;;;;4974500;28;20456;-66
2023/01/03 07:52:48;;;;;;;21.33;15.23;;;;;;;;;;4980945;28;20747;-66
2023/01/03 07:55:13;;;;;;;20.70;14.50;;;;;;;;;;4981289;28;20224;-68
2023/01/03 07:57:38;;;;;;;23.50;14.90;;;;;;;;;;4982474;28;20225;-68
2023/01/03 08:00:04;;;;;;;20.90;14.27;;;;;;;;;;4980804;28;20941;-67
2023/01/03 08:02:29;;;;;;;21.00;14.37;;;;;;;;;;5009161;28;20212;-67
2023/01/03 08:04:55;;;;;;;20.30;15.13;;;;;;;;;;5010073;28;20204;-68
2023/01/03 08:07:20;;;;;;;22.10;15.27;;;;;;;;;;5008710;28;20228;-67
2023/01/03 08:15:14;;;;;;;27.87;15.90;;;;;;;;;;5007355;28;20286;-69
2023/01/03 08:17:39;;;;;;;19.77;14.07;;;;;;;;;;5009570;28;20311;-69
2023/01/03 08:20:05;;;;;;;22.23;14.95;;;;;;;;;;5008329;28;20224;-69
2023/01/03 08:22:31;;;;;;;19.77;14.73;;;;;;;;;;5006954;28;20562;-69
2023/01/03 08:24:57;;;;;;;22.03;15.13;;;;;;;;;;5009668;28;20278;-69
2023/01/03 08:27:22;;;;;;;19.70;14.40;;;;;;;;;;5008373;28;20663;-69
2023/01/03 08:29:47;;;;;;;25.77;15.70;;;;;;;;;;5009591;28;20286;-69
2023/01/03 08:32:13;;;;;;;27.87;17.20;;;;;;;;;;5009091;28;20488;-68
2023/01/03 08:34:40;;;;;;;22.13;16.03;;;;;;;;;;5008638;28;20302;-69
2023/01/03 08:37:09;;;;;;;21.92;15.10;;;;;;;;;;5009122;28;20235;-68
2023/01/03 08:39:36;;;;;;;22.17;15.60;;;;;;;;;;5009338;28;20294;-70
2023/01/03 08:42:02;;;;;;;23.93;16.33;;;;;;;;;;4996972;28;20240;-68
2023/01/03 08:44:27;;;;;;;27.10;15.80;;;;;;;;;;4999840;28;20209;-69
2023/01/03 08:46:53;;;;;;;23.70;16.47;;;;;;;;;;5009683;28;20208;-68
2023/01/03 08:49:18;;;;;;;29.27;18.37;;;;;;;;;;5007871;28;20266;-69
2023/01/03 08:51:44;;;;;;;23.27;17.23;;;;;;;;;;5009510;28;20219;-69
2023/01/03 08:54:09;;;;;;;25.70;17.37;;;;;;;;;;5008481;28;20553;-68
2023/01/03 08:56:34;;;;;;;23.20;14.90;;;;;;;;;;5004432;28;20220;-70
2023/01/03 08:59:00;;;;;;;22.80;14.87;;;;;;;;;;5006811;28;20213;-69
2023/01/03 09:01:25;;;;;;;20.77;14.43;;;;;;;;;;5004406;28;20216;-69
2023/01/03 09:03:51;;;;;;;20.77;14.00;;;;;;;;;;5005001;28;20201;-70
2023/01/03 09:06:16;;;;;;;20.30;12.90;;;;;;;;;;5005407;28;20250;-69
2023/01/03 09:08:41;;;;;;;19.00;12.73;;;;;;;;;;5006170;28;20287;-70
2023/01/03 09:11:07;;;;;;;17.70;12.10;;;;;;;;;;5005397;28;20251;-69
2023/01/03 09:13:33;;;;;;;21.63;13.43;;;;;;;;;;5006072;28;20225;-70
2023/01/03 09:15:59;;;;;;;19.73;13.13;;;;;;;;;;5005877;28;20285;-70
2023/01/03 09:18:24;;;;;;;21.40;13.43;;;;;;;;;;5005858;28;20216;-69
2023/01/03 09:20:51;;;;;;;16.37;11.37;;;;;;;;;;5004736;28;20220;-70
2023/01/03 09:23:16;;;;;;;16.80;11.70;;;;;;;;;;4991457;28;20354;-68
2023/01/03 09:25:41;;;;;;;15.45;10.02;;;;;;;;;;4996667;28;20316;-69
2023/01/03 09:28:07;;;;;;;17.07;10.87;;;;;;;;;;5003987;28;20211;-69
2023/01/03 09:30:32;;;;;;;16.57;10.67;;;;;;;;;;5005659;28;20675;-70
2023/01/03 09:32:57;;;;;;;14.53;10.13;;;;;;;;;;5005722;28;20216;-69
2023/01/03 09:35:23;;;;;;;17.33;10.95;;;;;;;;;;5005394;28;20233;-69
2023/01/03 09:37:48;;;;;;;17.47;10.83;;;;;;;;;;5006000;28;20668;-69
2023/01/03 09:40:13;;;;;;;18.42;11.55;;;;;;;;;;5005911;28;20738;-68
2023/01/03 09:45:23;;;;;;;15.57;10.77;;;;;;;;;;5002834;28;20215;-68
2023/01/03 09:47:49;;;;;;;17.50;9.70;;;;;;;;;;5007564;28;20270;-68
2023/01/03 09:50:18;;;;;;;16.15;10.15;;;;;;;;;;5006989;28;20209;-68
2023/01/03 10:04:26;;;;;;;18.77;10.53;;;;;;;;;;5006377;28;20695;-68
2023/01/03 10:06:53;;;;;;;19.33;10.87;;;;;;;;;;4987136;28;20223;-69
2023/01/03 10:09:24;;;;;;;17.67;10.80;;;;;;;;;;4988757;28;20243;-68
2023/01/03 10:11:53;;;;;;;19.47;10.93;;;;;;;;;;4992514;28;20209;-68
2023/01/03 10:14:18;;;;;;;23.00;10.97;;;;;;;;;;5007598;28;20604;-68
2023/01/03 10:16:48;;;;;;;17.57;10.67;;;;;;;;;;5008669;28;20232;-68
2023/01/03 10:19:17;;;;;;;17.67;10.67;;;;;;;;;;5005718;28;20212;-68
2023/01/03 10:21:47;;;;;;;18.63;10.55;;;;;;;;;;5008975;28;20213;-68
2023/01/03 10:24:14;;;;;;;19.83;11.05;;;;;;;;;;4995741;28;20669;-68
2023/01/03 10:26:40;;;;;;;19.70;10.30;;;;;;;;;;4988363;28;20205;-68
2023/01/03 10:29:05;;;;;;;17.05;10.75;;;;;;;;;;4988264;28;20559;-68
2023/01/03 10:31:35;;;;;;;20.00;10.73;;;;;;;;;;4989271;28;20216;-69
2023/01/03 10:34:00;;;;;;;17.52;11.40;;;;;;;;;;4987973;28;20225;-67
2023/01/03 10:36:26;;;;;;;20.90;10.80;;;;;;;;;;5006999;28;20235;-69
2023/01/03 10:39:02;;;;;;;17.07;10.90;;;;;;;;;;5008270;28;20228;-69
2023/01/03 10:41:29;;;;;;;16.17;11.10;;;;;;;;;;4996719;28;20263;-69
2023/01/03 10:43:56;;;;;;;15.33;10.00;;;;;;;;;;4990048;28;20213;-69
2023/01/03 10:46:21;;;;;;;19.60;11.00;;;;;;;;;;4991850;28;20222;-69
2023/01/03 10:48:48;;;;;;;16.60;10.57;;;;;;;;;;4991615;28;20267;-69
2023/01/03 10:51:22;;;;;;;15.38;9.23;;;;;;;;;;4995058;28;20703;-69
2023/01/03 10:53:48;;;;;;;17.43;9.90;;;;;;;;;;5011809;28;20211;-69
2023/01/03 10:56:13;;;;;;;16.35;9.65;;;;;;;;;;5009947;28;20224;-68
2023/01/03 10:58:39;;;;;;;15.93;9.68;;;;;;;;;;5011893;28;20204;-69
2023/01/03 11:01:16;;;;;;;16.48;10.02;;;;;;;;;;5010991;28;20224;-69
2023/01/03 11:03:43;;;;;;;18.87;10.27;;;;;;;;;;5010320;28;20224;-69
2023/01/03 11:06:08;;;;;;;23.03;12.40;;;;;;;;;;5011078;28;20205;-69
2023/01/03 11:08:40;;;;;;;19.17;11.03;;;;;;;;;;5010883;28;20687;-69
2023/01/03 11:11:06;;;;;;;20.13;10.63;;;;;;;;;;5010759;28;20228;-68
2023/01/03 11:13:35;;;;;;;16.30;10.30;;;;;;;;;;4993691;28;20216;-69
2023/01/03 11:16:01;;;;;;;15.20;9.50;;;;;;;;;;4992341;28;20746;-66
2023/01/03 11:18:26;;;;;;;16.33;9.83;;;;;;;;;;4993715;28;20216;-69
2023/01/03 11:21:06;;;;;;;14.53;10.43;;;;;;;;;;5011242;28;20270;-69
2023/01/03 11:23:38;;;;;;;17.33;9.30;;;;;;;;;;5010273;28;20307;-69
2023/01/03 11:26:12;;;;;;;13.73;9.77;;;;;;;;;;4992903;28;20251;-68
2023/01/03 11:28:53;;;;;;;17.17;10.10;;;;;;;;;;5011441;28;20693;-69
2023/01/03 11:31:23;;;;;;;17.87;10.60;;;;;;;;;;4992278;28;20221;-69
2023/01/03 11:33:52;;;;;;;16.30;9.20;;;;;;;;;;5010843;28;20251;-69
2023/01/03 11:36:21;;;;;;;17.90;9.13;;;;;;;;;;5010447;28;20243;-69
2023/01/03 11:38:52;;;;;;;17.57;9.90;;;;;;;;;;5010402;28;20295;-69
2023/01/03 11:41:18;;;;;;;18.60;9.03;;;;;;;;;;4999779;28;20259;-69
2023/01/03 11:43:51;;;;;;;14.32;9.02;;;;;;;;;;4990647;28;20201;-69
2023/01/03 11:46:26;;;;;;;14.80;8.90;;;;;;;;;;4989422;28;20217;-69
2023/01/03 11:48:53;;;;;;;15.37;8.60;;;;;;;;;;4991153;28;20208;-69
2023/01/03 11:51:24;;;;;;;14.02;8.50;;;;;;;;;;4992529;28;20216;-69
2023/01/03 11:54:01;;;;;;;17.98;8.30;;;;;;;;;;5009011;28;20262;-69
2023/01/03 11:56:27;;;;;;;14.90;8.60;;;;;;;;;;5008738;28;20219;-69
2023/01/03 11:59:13;;;;;;;12.32;8.10;;;;;;;;;;5009941;28;20208;-69
2023/01/03 12:01:50;;;;;;;13.27;8.30;;;;;;;;;;5008641;28;20291;-69
2023/01/03 12:04:27;;;;;;;13.20;7.70;;;;;;;;;;5009995;28;20676;-69
2023/01/03 12:06:54;;;;;;;12.20;7.67;;;;;;;;;;4995128;28;20213;-69
2023/01/03 12:09:26;;;;;;;13.88;7.82;;;;;;;;;;4990223;28;20304;-69
2023/01/03 12:11:58;;;;;;;12.63;7.30;;;;;;;;;;4993805;28;20196;-69
2023/01/03 12:14:26;;;;;;;13.38;7.78;;;;;;;;;;5009817;28;20211;-69
2023/01/03 12:16:55;;;;;;;15.47;7.83;;;;;;;;;;5008725;28;20739;-69
2023/01/03 12:19:20;;;;;;;14.15;8.18;;;;;;;;;;5009202;28;20835;-69
2023/01/03 12:21:51;;;;;;;13.83;8.10;;;;;;;;;;4991862;28;20213;-69
2023/01/03 12:24:17;;;;;;;15.93;9.57;;;;;;;;;;5006589;28;20319;-69
2023/01/03 12:26:42;;;;;;;16.33;9.07;;;;;;;;;;5008630;28;20320;-69
2023/01/03 12:29:11;;;;;;;16.58;9.38;;;;;;;;;;5009521;28;20250;-69
2023/01/03 12:31:37;;;;;;;14.18;9.27;;;;;;;;;;5009917;28;20209;-69
2023/01/03 12:34:06;;;;;;;16.40;9.73;;;;;;;;;;5007412;28;20239;-68
2023/01/03 12:36:35;;;;;;;14.03;7.57;;;;;;;;;;4997119;28;20584;-68
2023/01/03 12:39:03;;;;;;;11.23;7.07;;;;;;;;;;4998667;28;20212;-68
2023/01/03 12:41:32;;;;;;;13.45;7.95;;;;;;;;;;4987728;28;20470;-68
2023/01/03 12:43:59;;;;;;;12.43;7.10;;;;;;;;;;4988974;28;20243;-68
2023/01/03 12:46:27;;;;;;;14.82;7.22;;;;;;;;;;4989802;28;20256;-68
2023/01/03 12:48:54;;;;;;;12.80;7.22;;;;;;;;;;4996435;28;20205;-68
2023/01/03 12:51:20;;;;;;;11.38;6.72;;;;;;;;;;4992571;28;20669;-68
2023/01/03 12:53:46;;;;;;;13.43;6.93;;;;;;;;;;4999614;28;20247;-67
2023/01/03 12:56:18;;;;;;;12.38;7.38;;;;;;;;;;5004394;28;20581;-67
2023/01/03 12:58:49;;;;;;;12.03;7.03;;;;;;;;;;5009469;28;20219;-67
2023/01/03 13:01:25;;;;;;;13.13;6.20;;;;;;;;;;5020095;28;20845;-67
2023/01/03 13:03:53;;;;;;;14.50;6.80;;;;;;;;;;5008125;28;20708;-68
2023/01/03 13:06:21;;;;;;;12.17;7.20;;;;;;;;;;5001991;28;20451;-67
2023/01/03 13:08:48;;;;;;;9.23;5.88;;;;;;;;;;5006960;28;20631;-67
2023/01/03 13:11:15;;;;;;;11.23;6.47;;;;;;;;;;5008621;28;20223;-67
2023/01/03 13:13:48;;;;;;;12.70;6.10;;;;;;;;;;5009348;28;20216;-68
2023/01/03 13:16:29;;;;;;;12.52;7.22;;;;;;;;;;4995063;28;20256;-67
2023/01/03 13:18:55;;;;;;;10.35;6.90;;;;;;;;;;4988416;28;20221;-67
2023/01/03 13:21:53;;;;;;;13.57;6.72;;;;;;;;;;4988103;28;20354;-67
2023/01/03 13:24:37;;;;;;;13.93;6.90;;;;;;;;;;4988503;28;20695;-67
2023/01/03 13:27:21;;;;;;;10.60;6.32;;;;;;;;;;4989094;28;20287;-68
2023/01/03 13:29:47;;;;;;;11.70;7.00;;;;;;;;;;4988966;28;20205;-68
2023/01/03 13:32:14;;;;;;;12.60;6.78;;;;;;;;;;4989047;28;20314;-67
2023/01/03 13:34:39;;;;;;;10.47;7.03;;;;;;;;;;4997201;28;20228;-68
2023/01/03 13:37:04;;;;;;;10.93;6.50;;;;;;;;;;5007877;28;20662;-68
2023/01/03 13:39:33;;;;;;;9.15;5.60;;;;;;;;;;5008977;28;20215;-67
2023/01/03 13:41:59;;;;;;;11.77;5.85;;;;;;;;;;5008927;28;20292;-68
2023/01/03 13:44:24;;;;;;;13.37;4.70;;;;;;;;;;5007995;28;20652;-68
2023/01/03 13:46:49;;;;;;;10.63;4.55;;;;;;;;;;4991708;28;20209;-68
2023/01/03 13:49:17;;;;;;;11.13;4.60;;;;;;;;;;5008229;28;20212;-68
2023/01/03 13:51:42;;;;;;;8.90;4.37;;;;;;;;;;4990815;28;20220;-68
2023/01/03 13:54:10;;;;;;;11.20;4.05;;;;;;;;;;5008280;28;20223;-67
2023/01/03 13:56:43;;;;;;;11.45;3.83;;;;;;;;;;5008724;28;20299;-68
2023/01/03 13:59:08;;;;;;;9.75;4.25;;;;;;;;;;5007647;28;20212;-68
2023/01/03 14:01:53;;;;;;;9.80;4.40;;;;;;;;;;5008781;28;20216;-68
2023/01/03 14:04:29;;;;;;;6.60;3.40;;;;;;;;;;4989968;28;20212;-68
2023/01/03 14:06:54;;;;;;;7.57;3.28;;;;;;;;;;5008876;28;20212;-68
2023/01/03 14:09:31;;;;;;;9.43;3.40;;;;;;;;;;5008068;28;20685;-68
2023/01/03 14:12:09;;;;;;;6.80;3.20;;;;;;;;;;5007961;28;20208;-68
2023/01/03 14:14:35;;;;;;;7.78;3.17;;;;;;;;;;4990866;28;20622;-69
2023/01/03 14:17:00;;;;;;;6.10;2.87;;;;;;;;;;4991414;28;20221;-68
2023/01/03 14:19:27;;;;;;;7.10;3.50;;;;;;;;;;4993815;28;20277;-68
2023/01/03 14:21:54;;;;;;;6.60;3.05;;;;;;;;;;4995026;28;20248;-68
2023/01/03 14:24:21;;;;;;;7.00;3.08;;;;;;;;;;4994242;28;20226;-68
2023/01/03 14:26:46;;;;;;;6.70;3.03;;;;;;;;;;4993838;28;20247;-68
2023/01/03 14:29:14;;;;;;;7.32;3.15;;;;;;;;;;5011958;28;20240;-68
2023/01/03 14:31:43;;;;;;;7.18;3.10;;;;;;;;;;5012047;28;20270;-68
2023/01/03 14:34:13;;;;;;;8.85;3.75;;;;;;;;;;4993428;28;20328;-67
2023/01/03 14:36:43;;;;;;;7.88;3.40;;;;;;;;;;5010717;28;20228;-68
2023/01/03 14:39:11;;;;;;;8.73;3.42;;;;;;;;;;5011790;28;20219;-68
2023/01/03 14:41:37;;;;;;;7.97;4.35;;;;;;;;;;5009733;28;20213;-68
2023/01/03 14:44:05;;;;;;;11.48;4.70;;;;;;;;;;5011852;28;20205;-67
2023/01/03 14:46:31;;;;;;;10.80;5.10;;;;;;;;;;5011375;28;20204;-68
2023/01/03 14:48:57;;;;;;;10.13;5.07;;;;;;;;;;5010817;28;20219;-68
2023/01/03 14:51:22;;;;;;;12.27;5.55;;;;;;;;;;5005409;28;20220;-68
2023/01/03 14:53:48;;;;;;;9.40;5.22;;;;;;;;;;4991375;28;20583;-68
2023/01/03 14:56:13;;;;;;;9.10;5.43;;;;;;;;;;4991760;28;20233;-67
2023/01/03 14:58:39;;;;;;;12.70;5.88;;;;;;;;;;4996844;28;20224;-68
2023/01/03 15:01:05;;;;;;;10.07;5.20;;;;;;;;;;5003795;28;20247;-67
2023/01/03 15:03:31;;;;;;;11.97;5.20;;;;;;;;;;5005628;28;20230;-68
2023/01/03 15:05:57;;;;;;;11.20;5.15;;;;;;;;;;5005902;28;20307;-68
2023/01/03 15:08:25;;;;;;;8.98;5.10;;;;;;;;;;5005377;28;20575;-68
2023/01/03 15:10:51;;;;;;;12.13;5.70;;;;;;;;;;5005352;28;20271;-68
2023/01/03 15:13:18;;;;;;;10.57;5.10;;;;;;;;;;5004411;28;20303;-68
2023/01/03 15:15:44;;;;;;;12.35;4.90;;;;;;;;;;5004374;28;20750;-68
2023/01/03 15:18:09;;;;;;;10.57;5.15;;;;;;;;;;5003735;28;20617;-68
2023/01/03 15:20:35;;;;;;;8.20;4.32;;;;;;;;;;5005834;28;20219;-68
2023/01/03 15:23:01;;;;;;;10.02;5.25;;;;;;;;;;5004619;28;20305;-67
2023/01/03 15:25:31;;;;;;;8.80;4.63;;;;;;;;;;5005425;28;20294;-68
2023/01/03 15:27:56;;;;;;;9.93;4.68;;;;;;;;;;5005170;28;20283;-69
2023/01/03 15:30:23;;;;;;;11.50;4.60;;;;;;;;;;5001094;28;20555;-68